sensor_id;sensor_type;location;lat;lon;timestamp;P1;durP1;ratioP1;P2;durP2;ratioP2
26686;SDS011;14298;50.900;4.648;2023-07-08T00:01:14;1.87;;;1.50;;
26686;SDS011;14298;50.900;4.648;2023-07-08T00:03:42;1.93;;;1.73;;
26686;SDS011;14298;50.900;4.648;2023-07-08T00:06:18;2.03;;;1.50;;
26686;SDS011;14298;50.900;4.648;2023-07-08T00:08:43;1.80;;;1.43;;
26686;SDS011;14298;50.900;4.648;2023-07-08T00:11:11;1.60;;;1.50;;
26686;SDS011;14298;50.900;4.648;2023-07-08T00:13:39;2.37;;;1.37;;
26686;SDS011;14298;50.900;4.648;2023-07-08T00:16:11;1.37;;;1.27;;
26686;SDS011;14298;50.900;4.648;2023-07-08T00:18:39;1.83;;;1.57;;
26686;SDS011;14298;50.900;4.648;2023-07-08T00:21:10;1.80;;;1.60;;
26686;SDS011;14298;50.900;4.648;2023-07-08T00:23:43;1.73;;;1.40;;
26686;SDS011;14298;50.900;4.648;2023-07-08T00:26:11;2.77;;;1.87;;
26686;SDS011;14298;50.900;4.648;2023-07-08T00:28:40;1.57;;;1.47;;
26686;SDS011;14298;50.900;4.648;2023-07-08T00:31:08;1.63;;;1.53;;
26686;SDS011;14298;50.900;4.648;2023-07-08T00:33:37;1.60;;;1.50;;
26686;SDS011;14298;50.900;4.648;2023-07-08T00:38:52;6.27;;;1.93;;
26686;SDS011;14298;50.900;4.648;2023-07-08T00:41:28;1.17;;;1.17;;
26686;SDS011;14298;50.900;4.648;2023-07-08T00:43:56;2.07;;;1.30;;
26686;SDS011;14298;50.900;4.648;2023-07-08T00:46:31;2.07;;;1.57;;
26686;SDS011;14298;50.900;4.648;2023-07-08T00:51:38;3.30;;;1.30;;
26686;SDS011;14298;50.900;4.648;2023-07-08T00:54:18;3.10;;;1.73;;
26686;SDS011;14298;50.900;4.648;2023-07-08T00:56:42;1.70;;;1.60;;
26686;SDS011;14298;50.900;4.648;2023-07-08T00:59:12;1.63;;;1.40;;
26686;SDS011;14298;50.900;4.648;2023-07-08T01:01:41;1.57;;;1.33;;
26686;SDS011;14298;50.900;4.648;2023-07-08T01:04:11;4.27;;;1.57;;
26686;SDS011;14298;50.900;4.648;2023-07-08T01:06:41;1.43;;;1.27;;
26686;SDS011;14298;50.900;4.648;2023-07-08T01:09:10;1.83;;;1.73;;
26686;SDS011;14298;50.900;4.648;2023-07-08T01:11:39;3.33;;;1.70;;
26686;SDS011;14298;50.900;4.648;2023-07-08T01:14:09;2.60;;;1.73;;
26686;SDS011;14298;50.900;4.648;2023-07-08T01:16:37;3.23;;;2.67;;
26686;SDS011;14298;50.900;4.648;2023-07-08T01:19:06;3.77;;;1.50;;
26686;SDS011;14298;50.900;4.648;2023-07-08T01:21:39;2.67;;;1.57;;
26686;SDS011;14298;50.900;4.648;2023-07-08T01:24:09;2.33;;;1.80;;
26686;SDS011;14298;50.900;4.648;2023-07-08T01:26:39;1.90;;;1.47;;
26686;SDS011;14298;50.900;4.648;2023-07-08T01:29:07;1.20;;;1.10;;
26686;SDS011;14298;50.900;4.648;2023-07-08T01:34:22;3.50;;;2.40;;
26686;SDS011;14298;50.900;4.648;2023-07-08T01:36:51;2.70;;;1.53;;
26686;SDS011;14298;50.900;4.648;2023-07-08T01:39:21;2.70;;;1.67;;
26686;SDS011;14298;50.900;4.648;2023-07-08T01:41:49;1.90;;;1.67;;
26686;SDS011;14298;50.900;4.648;2023-07-08T01:44:23;2.20;;;1.60;;
26686;SDS011;14298;50.900;4.648;2023-07-08T01:46:51;2.33;;;1.70;;
26686;SDS011;14298;50.900;4.648;2023-07-08T01:49:19;1.40;;;1.30;;
26686;SDS011;14298;50.900;4.648;2023-07-08T01:51:48;2.03;;;1.70;;
26686;SDS011;14298;50.900;4.648;2023-07-08T01:54:16;0.90;;;0.90;;
26686;SDS011;14298;50.900;4.648;2023-07-08T01:56:44;2.63;;;1.97;;
26686;SDS011;14298;50.900;4.648;2023-07-08T01:59:12;2.20;;;2.00;;
26686;SDS011;14298;50.900;4.648;2023-07-08T02:01:40;2.93;;;2.57;;
26686;SDS011;14298;50.900;4.648;2023-07-08T02:04:08;1.53;;;1.43;;
26686;SDS011;14298;50.900;4.648;2023-07-08T02:09:23;3.33;;;1.97;;
26686;SDS011;14298;50.900;4.648;2023-07-08T02:11:55;2.10;;;1.90;;
26686;SDS011;14298;50.900;4.648;2023-07-08T02:14:23;1.83;;;1.63;;
26686;SDS011;14298;50.900;4.648;2023-07-08T02:16:51;2.60;;;2.40;;
26686;SDS011;14298;50.900;4.648;2023-07-08T02:19:19;3.30;;;2.00;;
26686;SDS011;14298;50.900;4.648;2023-07-08T02:21:49;3.70;;;2.07;;
26686;SDS011;14298;50.900;4.648;2023-07-08T02:24:18;1.80;;;1.70;;
26686;SDS011;14298;50.900;4.648;2023-07-08T02:26:46;3.00;;;2.30;;
26686;SDS011;14298;50.900;4.648;2023-07-08T02:29:14;1.80;;;1.70;;
26686;SDS011;14298;50.900;4.648;2023-07-08T02:31:42;2.47;;;1.67;;
26686;SDS011;14298;50.900;4.648;2023-07-08T02:34:10;1.47;;;1.37;;
26686;SDS011;14298;50.900;4.648;2023-07-08T02:36:39;2.00;;;1.67;;
26686;SDS011;14298;50.900;4.648;2023-07-08T02:39:07;1.63;;;1.53;;
26686;SDS011;14298;50.900;4.648;2023-07-08T02:41:35;3.93;;;2.67;;
26686;SDS011;14298;50.900;4.648;2023-07-08T02:44:03;3.20;;;2.00;;
26686;SDS011;14298;50.900;4.648;2023-07-08T02:46:31;2.40;;;2.10;;
26686;SDS011;14298;50.900;4.648;2023-07-08T02:48:59;6.33;;;2.37;;
26686;SDS011;14298;50.900;4.648;2023-07-08T02:51:27;1.70;;;1.60;;
26686;SDS011;14298;50.900;4.648;2023-07-08T02:53:54;1.70;;;1.60;;
26686;SDS011;14298;50.900;4.648;2023-07-08T02:56:22;2.40;;;2.20;;
26686;SDS011;14298;50.900;4.648;2023-07-08T02:58:50;7.40;;;2.17;;
26686;SDS011;14298;50.900;4.648;2023-07-08T03:01:18;2.27;;;2.07;;
26686;SDS011;14298;50.900;4.648;2023-07-08T03:03:47;5.43;;;2.57;;
26686;SDS011;14298;50.900;4.648;2023-07-08T03:06:15;2.57;;;2.03;;
26686;SDS011;14298;50.900;4.648;2023-07-08T03:08:43;4.30;;;2.33;;
26686;SDS011;14298;50.900;4.648;2023-07-08T03:11:11;4.47;;;1.70;;
26686;SDS011;14298;50.900;4.648;2023-07-08T03:13:40;1.73;;;1.63;;
26686;SDS011;14298;50.900;4.648;2023-07-08T03:16:08;2.87;;;2.20;;
26686;SDS011;14298;50.900;4.648;2023-07-08T03:18:37;2.30;;;1.77;;
26686;SDS011;14298;50.900;4.648;2023-07-08T03:21:07;3.37;;;2.30;;
26686;SDS011;14298;50.900;4.648;2023-07-08T03:23:35;3.30;;;2.30;;
26686;SDS011;14298;50.900;4.648;2023-07-08T03:26:03;2.20;;;1.97;;
26686;SDS011;14298;50.900;4.648;2023-07-08T03:28:31;2.13;;;1.93;;
26686;SDS011;14298;50.900;4.648;2023-07-08T03:30:59;8.97;;;2.03;;
26686;SDS011;14298;50.900;4.648;2023-07-08T03:33:27;3.57;;;2.10;;
26686;SDS011;14298;50.900;4.648;2023-07-08T03:35:56;3.73;;;2.23;;
26686;SDS011;14298;50.900;4.648;2023-07-08T03:38:24;1.60;;;1.50;;
26686;SDS011;14298;50.900;4.648;2023-07-08T03:40:52;6.27;;;1.50;;
26686;SDS011;14298;50.900;4.648;2023-07-08T03:43:20;1.80;;;1.57;;
26686;SDS011;14298;50.900;4.648;2023-07-08T03:45:48;4.10;;;2.07;;
26686;SDS011;14298;50.900;4.648;2023-07-08T03:48:16;2.43;;;1.70;;
26686;SDS011;14298;50.900;4.648;2023-07-08T03:50:44;3.63;;;2.53;;
26686;SDS011;14298;50.900;4.648;2023-07-08T03:53:12;1.83;;;1.70;;
26686;SDS011;14298;50.900;4.648;2023-07-08T03:55:40;3.13;;;2.50;;
26686;SDS011;14298;50.900;4.648;2023-07-08T03:58:08;2.17;;;1.97;;
26686;SDS011;14298;50.900;4.648;2023-07-08T04:00:36;2.80;;;2.23;;
26686;SDS011;14298;50.900;4.648;2023-07-08T04:03:04;3.60;;;2.37;;
26686;SDS011;14298;50.900;4.648;2023-07-08T04:05:32;2.50;;;2.10;;
26686;SDS011;14298;50.900;4.648;2023-07-08T04:08:00;7.50;;;3.37;;
26686;SDS011;14298;50.900;4.648;2023-07-08T04:10:28;4.13;;;2.67;;
26686;SDS011;14298;50.900;4.648;2023-07-08T04:12:56;2.30;;;1.67;;
26686;SDS011;14298;50.900;4.648;2023-07-08T04:15:24;2.47;;;2.10;;
26686;SDS011;14298;50.900;4.648;2023-07-08T04:17:54;3.77;;;2.37;;
26686;SDS011;14298;50.900;4.648;2023-07-08T04:20:24;5.00;;;2.63;;
26686;SDS011;14298;50.900;4.648;2023-07-08T04:22:53;3.83;;;2.33;;
26686;SDS011;14298;50.900;4.648;2023-07-08T04:25:21;3.43;;;2.30;;
26686;SDS011;14298;50.900;4.648;2023-07-08T04:27:50;5.33;;;2.30;;
26686;SDS011;14298;50.900;4.648;2023-07-08T04:30:22;3.43;;;2.17;;
26686;SDS011;14298;50.900;4.648;2023-07-08T04:32:51;1.70;;;1.60;;
26686;SDS011;14298;50.900;4.648;2023-07-08T04:35:19;2.20;;;2.00;;
26686;SDS011;14298;50.900;4.648;2023-07-08T04:37:47;1.83;;;1.73;;
26686;SDS011;14298;50.900;4.648;2023-07-08T04:40:16;2.83;;;2.00;;
26686;SDS011;14298;50.900;4.648;2023-07-08T04:42:46;3.80;;;2.07;;
26686;SDS011;14298;50.900;4.648;2023-07-08T04:45:15;1.60;;;1.50;;
26686;SDS011;14298;50.900;4.648;2023-07-08T04:47:44;2.40;;;2.20;;
26686;SDS011;14298;50.900;4.648;2023-07-08T04:50:14;1.83;;;1.73;;
26686;SDS011;14298;50.900;4.648;2023-07-08T04:52:42;2.87;;;2.00;;
26686;SDS011;14298;50.900;4.648;2023-07-08T04:55:11;3.00;;;2.53;;
26686;SDS011;14298;50.900;4.648;2023-07-08T04:57:40;2.47;;;2.27;;
26686;SDS011;14298;50.900;4.648;2023-07-08T05:00:10;2.40;;;2.13;;
26686;SDS011;14298;50.900;4.648;2023-07-08T05:05:25;5.37;;;2.07;;
26686;SDS011;14298;50.900;4.648;2023-07-08T05:07:53;2.20;;;1.90;;
26686;SDS011;14298;50.900;4.648;2023-07-08T05:10:21;3.37;;;2.43;;
26686;SDS011;14298;50.900;4.648;2023-07-08T05:12:49;4.53;;;2.40;;
26686;SDS011;14298;50.900;4.648;2023-07-08T05:15:17;5.67;;;3.37;;
26686;SDS011;14298;50.900;4.648;2023-07-08T05:17:45;2.57;;;2.10;;
26686;SDS011;14298;50.900;4.648;2023-07-08T05:20:14;10.10;;;2.57;;
26686;SDS011;14298;50.900;4.648;2023-07-08T05:22:42;1.90;;;1.70;;
26686;SDS011;14298;50.900;4.648;2023-07-08T05:25:11;5.13;;;2.63;;
26686;SDS011;14298;50.900;4.648;2023-07-08T05:27:39;2.20;;;2.00;;
26686;SDS011;14298;50.900;4.648;2023-07-08T05:30:08;3.90;;;2.60;;
26686;SDS011;14298;50.900;4.648;2023-07-08T05:32:37;4.13;;;2.40;;
26686;SDS011;14298;50.900;4.648;2023-07-08T05:35:05;2.27;;;2.07;;
26686;SDS011;14298;50.900;4.648;2023-07-08T05:37:33;4.00;;;2.77;;
26686;SDS011;14298;50.900;4.648;2023-07-08T05:40:01;3.53;;;2.40;;
26686;SDS011;14298;50.900;4.648;2023-07-08T05:42:30;4.97;;;3.00;;
26686;SDS011;14298;50.900;4.648;2023-07-08T05:44:58;2.13;;;1.63;;
26686;SDS011;14298;50.900;4.648;2023-07-08T05:47:26;2.33;;;2.10;;
26686;SDS011;14298;50.900;4.648;2023-07-08T05:49:54;2.63;;;1.97;;
26686;SDS011;14298;50.900;4.648;2023-07-08T05:52:22;4.33;;;2.63;;
26686;SDS011;14298;50.900;4.648;2023-07-08T05:54:50;3.37;;;2.83;;
26686;SDS011;14298;50.900;4.648;2023-07-08T05:57:18;3.90;;;2.67;;
26686;SDS011;14298;50.900;4.648;2023-07-08T05:59:46;2.63;;;1.90;;
26686;SDS011;14298;50.900;4.648;2023-07-08T06:02:14;2.50;;;1.93;;
26686;SDS011;14298;50.900;4.648;2023-07-08T06:04:43;2.53;;;2.00;;
26686;SDS011;14298;50.900;4.648;2023-07-08T06:07:11;2.72;;;1.75;;
26686;SDS011;14298;50.900;4.648;2023-07-08T06:09:39;2.47;;;1.98;;
26686;SDS011;14298;50.900;4.648;2023-07-08T06:12:07;3.65;;;2.37;;
26686;SDS011;14298;50.900;4.648;2023-07-08T06:14:35;3.12;;;2.45;;
26686;SDS011;14298;50.900;4.648;2023-07-08T06:17:03;2.15;;;1.65;;
26686;SDS011;14298;50.900;4.648;2023-07-08T06:19:31;2.42;;;2.20;;
26686;SDS011;14298;50.900;4.648;2023-07-08T06:22:00;4.33;;;2.80;;
26686;SDS011;14298;50.900;4.648;2023-07-08T06:24:28;2.52;;;2.08;;
26686;SDS011;14298;50.900;4.648;2023-07-08T06:26:56;2.55;;;2.33;;
26686;SDS011;14298;50.900;4.648;2023-07-08T06:29:24;4.53;;;2.72;;
26686;SDS011;14298;50.900;4.648;2023-07-08T06:31:52;3.47;;;2.62;;
26686;SDS011;14298;50.900;4.648;2023-07-08T06:34:20;2.83;;;2.15;;
26686;SDS011;14298;50.900;4.648;2023-07-08T06:36:50;2.98;;;1.95;;
26686;SDS011;14298;50.900;4.648;2023-07-08T06:39:18;2.47;;;2.05;;
26686;SDS011;14298;50.900;4.648;2023-07-08T06:41:46;5.83;;;2.42;;
26686;SDS011;14298;50.900;4.648;2023-07-08T06:44:14;2.62;;;2.40;;
26686;SDS011;14298;50.900;4.648;2023-07-08T06:46:43;3.95;;;2.65;;
26686;SDS011;14298;50.900;4.648;2023-07-08T06:49:11;4.37;;;2.87;;
26686;SDS011;14298;50.900;4.648;2023-07-08T06:51:39;2.75;;;2.12;;
26686;SDS011;14298;50.900;4.648;2023-07-08T06:54:09;2.70;;;1.80;;
26686;SDS011;14298;50.900;4.648;2023-07-08T06:56:40;5.40;;;2.42;;
26686;SDS011;14298;50.900;4.648;2023-07-08T06:59:08;3.35;;;2.40;;
26686;SDS011;14298;50.900;4.648;2023-07-08T07:01:37;7.15;;;2.72;;
26686;SDS011;14298;50.900;4.648;2023-07-08T07:04:05;2.45;;;2.25;;
26686;SDS011;14298;50.900;4.648;2023-07-08T07:06:33;4.85;;;2.02;;
26686;SDS011;14298;50.900;4.648;2023-07-08T07:09:01;2.55;;;2.00;;
26686;SDS011;14298;50.900;4.648;2023-07-08T07:11:29;2.42;;;1.65;;
26686;SDS011;14298;50.900;4.648;2023-07-08T07:13:57;4.45;;;2.80;;
26686;SDS011;14298;50.900;4.648;2023-07-08T07:16:25;2.17;;;1.65;;
26686;SDS011;14298;50.900;4.648;2023-07-08T07:18:53;3.17;;;2.72;;
26686;SDS011;14298;50.900;4.648;2023-07-08T07:21:21;2.72;;;2.12;;
26686;SDS011;14298;50.900;4.648;2023-07-08T07:23:49;6.50;;;1.77;;
26686;SDS011;14298;50.900;4.648;2023-07-08T07:26:17;3.15;;;2.05;;
26686;SDS011;14298;50.900;4.648;2023-07-08T07:28:45;2.87;;;2.15;;
26686;SDS011;14298;50.900;4.648;2023-07-08T07:31:13;6.22;;;2.50;;
26686;SDS011;14298;50.900;4.648;2023-07-08T07:33:41;2.50;;;1.92;;
26686;SDS011;14298;50.900;4.648;2023-07-08T07:36:09;4.03;;;2.40;;
26686;SDS011;14298;50.900;4.648;2023-07-08T07:38:37;2.72;;;1.92;;
26686;SDS011;14298;50.900;4.648;2023-07-08T07:41:05;2.10;;;1.90;;
26686;SDS011;14298;50.900;4.648;2023-07-08T07:43:35;1.75;;;1.55;;
26686;SDS011;14298;50.900;4.648;2023-07-08T07:46:03;3.33;;;2.10;;
26686;SDS011;14298;50.900;4.648;2023-07-08T07:48:33;2.77;;;2.02;;
26686;SDS011;14298;50.900;4.648;2023-07-08T07:51:02;5.10;;;2.30;;
26686;SDS011;14298;50.900;4.648;2023-07-08T07:53:30;2.65;;;2.10;;
26686;SDS011;14298;50.900;4.648;2023-07-08T07:55:59;2.67;;;1.90;;
26686;SDS011;14298;50.900;4.648;2023-07-08T07:58:27;3.20;;;2.15;;
26686;SDS011;14298;50.900;4.648;2023-07-08T08:00:55;3.02;;;2.20;;
26686;SDS011;14298;50.900;4.648;2023-07-08T08:03:23;3.77;;;2.15;;
26686;SDS011;14298;50.900;4.648;2023-07-08T08:05:52;4.12;;;2.22;;
26686;SDS011;14298;50.900;4.648;2023-07-08T08:08:20;3.10;;;2.22;;
26686;SDS011;14298;50.900;4.648;2023-07-08T08:10:49;4.87;;;1.98;;
26686;SDS011;14298;50.900;4.648;2023-07-08T08:13:17;3.42;;;2.37;;
26686;SDS011;14298;50.900;4.648;2023-07-08T08:15:45;4.42;;;2.70;;
26686;SDS011;14298;50.900;4.648;2023-07-08T08:18:13;2.60;;;2.20;;
26686;SDS011;14298;50.900;4.648;2023-07-08T08:20:41;1.70;;;1.50;;
26686;SDS011;14298;50.900;4.648;2023-07-08T08:23:09;3.05;;;2.00;;
26686;SDS011;14298;50.900;4.648;2023-07-08T08:25:37;4.65;;;2.25;;
26686;SDS011;14298;50.900;4.648;2023-07-08T08:28:05;3.40;;;2.02;;
26686;SDS011;14298;50.900;4.648;2023-07-08T08:30:33;3.02;;;2.30;;
26686;SDS011;14298;50.900;4.648;2023-07-08T08:33:01;3.85;;;2.05;;
26686;SDS011;14298;50.900;4.648;2023-07-08T08:35:29;3.22;;;1.67;;
26686;SDS011;14298;50.900;4.648;2023-07-08T08:37:57;5.50;;;1.87;;
26686;SDS011;14298;50.900;4.648;2023-07-08T08:40:25;2.87;;;2.15;;
26686;SDS011;14298;50.900;4.648;2023-07-08T08:42:58;2.62;;;1.87;;
26686;SDS011;14298;50.900;4.648;2023-07-08T08:45:23;2.85;;;1.92;;
26686;SDS011;14298;50.900;4.648;2023-07-08T08:47:54;2.47;;;1.90;;
26686;SDS011;14298;50.900;4.648;2023-07-08T08:53:02;3.22;;;2.30;;
26686;SDS011;14298;50.900;4.648;2023-07-08T08:55:31;6.17;;;2.40;;
26686;SDS011;14298;50.900;4.648;2023-07-08T09:00:35;3.62;;;1.98;;
26686;SDS011;14298;50.900;4.648;2023-07-08T09:03:10;4.08;;;1.98;;
26686;SDS011;14298;50.900;4.648;2023-07-08T09:05:34;4.10;;;2.12;;
26686;SDS011;14298;50.900;4.648;2023-07-08T09:08:04;4.12;;;1.95;;
26686;SDS011;14298;50.900;4.648;2023-07-08T09:13:04;5.65;;;2.17;;
26686;SDS011;14298;50.900;4.648;2023-07-08T09:15:33;5.90;;;2.20;;
26686;SDS011;14298;50.900;4.648;2023-07-08T09:18:05;2.25;;;2.00;;
26686;SDS011;14298;50.900;4.648;2023-07-08T09:20:31;3.37;;;1.80;;
26686;SDS011;14298;50.900;4.648;2023-07-08T09:28:03;3.77;;;2.45;;
26686;SDS011;14298;50.900;4.648;2023-07-08T09:30:31;2.45;;;1.87;;
26686;SDS011;14298;50.900;4.648;2023-07-08T09:33:02;4.20;;;2.42;;
26686;SDS011;14298;50.900;4.648;2023-07-08T09:35:29;2.33;;;1.77;;
26686;SDS011;14298;50.900;4.648;2023-07-08T09:38:02;2.85;;;2.17;;
26686;SDS011;14298;50.900;4.648;2023-07-08T09:40:31;4.15;;;2.47;;
26686;SDS011;14298;50.900;4.648;2023-07-08T09:43:04;3.25;;;2.65;;
26686;SDS011;14298;50.900;4.648;2023-07-08T09:45:40;2.58;;;1.95;;
26686;SDS011;14298;50.900;4.648;2023-07-08T09:48:02;4.78;;;2.25;;
26686;SDS011;14298;50.900;4.648;2023-07-08T09:50:30;3.83;;;2.37;;
26686;SDS011;14298;50.900;4.648;2023-07-08T09:52:59;3.55;;;2.30;;
26686;SDS011;14298;50.900;4.648;2023-07-08T09:55:28;5.10;;;1.82;;
26686;SDS011;14298;50.900;4.648;2023-07-08T09:57:57;2.85;;;1.90;;
26686;SDS011;14298;50.900;4.648;2023-07-08T10:00:37;4.65;;;2.62;;
26686;SDS011;14298;50.900;4.648;2023-07-08T10:03:04;1.52;;;1.42;;
26686;SDS011;14298;50.900;4.648;2023-07-08T10:05:37;3.27;;;2.50;;
26686;SDS011;14298;50.900;4.648;2023-07-08T10:08:19;2.65;;;1.70;;
26686;SDS011;14298;50.900;4.648;2023-07-08T10:10:48;3.87;;;2.10;;
26686;SDS011;14298;50.900;4.648;2023-07-08T10:13:22;4.05;;;2.20;;
26686;SDS011;14298;50.900;4.648;2023-07-08T10:15:52;3.55;;;2.33;;
26686;SDS011;14298;50.900;4.648;2023-07-08T10:18:21;3.75;;;2.45;;
26686;SDS011;14298;50.900;4.648;2023-07-08T10:21:08;5.05;;;2.08;;
26686;SDS011;14298;50.900;4.648;2023-07-08T10:23:42;5.00;;;2.15;;
26686;SDS011;14298;50.900;4.648;2023-07-08T10:29:11;2.20;;;1.95;;
26686;SDS011;14298;50.900;4.648;2023-07-08T10:31:34;2.85;;;2.00;;
26686;SDS011;14298;50.900;4.648;2023-07-08T10:36:54;2.30;;;1.98;;
26686;SDS011;14298;50.900;4.648;2023-07-08T10:42:19;4.25;;;2.85;;
26686;SDS011;14298;50.900;4.648;2023-07-08T10:45:08;2.85;;;2.33;;
26686;SDS011;14298;50.900;4.648;2023-07-08T10:50:00;8.13;;;3.42;;
26686;SDS011;14298;50.900;4.648;2023-07-08T10:52:49;3.12;;;1.85;;
26686;SDS011;14298;50.900;4.648;2023-07-08T10:55:28;6.22;;;2.42;;
26686;SDS011;14298;50.900;4.648;2023-07-08T11:05:44;2.85;;;1.87;;
26686;SDS011;14298;50.900;4.648;2023-07-08T11:13:55;2.58;;;2.30;;
26686;SDS011;14298;50.900;4.648;2023-07-08T11:16:33;3.17;;;2.20;;
26686;SDS011;14298;50.900;4.648;2023-07-08T11:19:07;4.40;;;2.37;;
26686;SDS011;14298;50.900;4.648;2023-07-08T11:21:40;3.33;;;2.45;;
26686;SDS011;14298;50.900;4.648;2023-07-08T11:24:26;3.20;;;2.15;;
26686;SDS011;14298;50.900;4.648;2023-07-08T11:27:01;4.33;;;1.95;;
26686;SDS011;14298;50.900;4.648;2023-07-08T11:29:38;3.02;;;2.10;;
26686;SDS011;14298;50.900;4.648;2023-07-08T11:32:06;4.40;;;2.35;;
26686;SDS011;14298;50.900;4.648;2023-07-08T11:34:35;3.85;;;2.35;;
26686;SDS011;14298;50.900;4.648;2023-07-08T11:37:04;3.52;;;1.35;;
26686;SDS011;14298;50.900;4.648;2023-07-08T11:39:33;1.77;;;1.67;;
26686;SDS011;14298;50.900;4.648;2023-07-08T11:42:06;3.52;;;1.50;;
26686;SDS011;14298;50.900;4.648;2023-07-08T11:44:35;2.85;;;1.70;;
26686;SDS011;14298;50.900;4.648;2023-07-08T11:47:04;6.00;;;1.80;;
26686;SDS011;14298;50.900;4.648;2023-07-08T11:49:32;3.22;;;1.87;;
26686;SDS011;14298;50.900;4.648;2023-07-08T11:52:00;2.25;;;1.98;;
26686;SDS011;14298;50.900;4.648;2023-07-08T11:54:30;2.52;;;1.95;;
26686;SDS011;14298;50.900;4.648;2023-07-08T11:57:05;1.57;;;1.45;;
26686;SDS011;14298;50.900;4.648;2023-07-08T11:59:39;5.05;;;2.25;;
26686;SDS011;14298;50.900;4.648;2023-07-08T12:02:17;2.50;;;1.62;;
26686;SDS011;14298;50.900;4.648;2023-07-08T12:07:22;2.52;;;2.00;;
26686;SDS011;14298;50.900;4.648;2023-07-08T12:12:40;2.75;;;1.92;;
26686;SDS011;14298;50.900;4.648;2023-07-08T12:15:12;6.85;;;2.40;;
26686;SDS011;14298;50.900;4.648;2023-07-08T12:17:39;2.70;;;2.02;;
26686;SDS011;14298;50.900;4.648;2023-07-08T12:20:18;2.55;;;1.87;;
26686;SDS011;14298;50.900;4.648;2023-07-08T12:22:46;2.40;;;2.00;;
26686;SDS011;14298;50.900;4.648;2023-07-08T12:25:15;2.52;;;2.05;;
26686;SDS011;14298;50.900;4.648;2023-07-08T12:27:45;2.72;;;1.52;;
26686;SDS011;14298;50.900;4.648;2023-07-08T12:30:14;2.12;;;1.80;;
26686;SDS011;14298;50.900;4.648;2023-07-08T12:32:42;2.00;;;1.67;;
26686;SDS011;14298;50.900;4.648;2023-07-08T12:35:24;4.28;;;2.47;;
26686;SDS011;14298;50.900;4.648;2023-07-08T12:37:53;2.67;;;1.85;;
26686;SDS011;14298;50.900;4.648;2023-07-08T12:40:24;3.65;;;1.65;;
26686;SDS011;14298;50.900;4.648;2023-07-08T12:42:53;5.45;;;2.47;;
26686;SDS011;14298;50.900;4.648;2023-07-08T12:45:21;2.95;;;1.82;;
26686;SDS011;14298;50.900;4.648;2023-07-08T12:47:50;2.50;;;1.45;;
26686;SDS011;14298;50.900;4.648;2023-07-08T12:50:18;2.83;;;1.82;;
26686;SDS011;14298;50.900;4.648;2023-07-08T12:52:46;4.28;;;1.95;;
26686;SDS011;14298;50.900;4.648;2023-07-08T12:55:15;1.67;;;1.25;;
26686;SDS011;14298;50.900;4.648;2023-07-08T12:57:49;2.22;;;1.60;;
26686;SDS011;14298;50.900;4.648;2023-07-08T13:00:14;3.05;;;1.67;;
26686;SDS011;14298;50.900;4.648;2023-07-08T13:02:44;2.75;;;1.77;;
26686;SDS011;14298;50.900;4.648;2023-07-08T13:05:11;2.05;;;1.30;;
26686;SDS011;14298;50.900;4.648;2023-07-08T13:07:40;2.72;;;0.98;;
26686;SDS011;14298;50.900;4.648;2023-07-08T13:10:16;0.60;;;0.60;;
26686;SDS011;14298;50.900;4.648;2023-07-08T13:12:38;0.60;;;0.57;;
26686;SDS011;14298;50.900;4.648;2023-07-08T13:15:16;1.30;;;0.90;;
26686;SDS011;14298;50.900;4.648;2023-07-08T13:17:43;0.57;;;0.57;;
26686;SDS011;14298;50.900;4.648;2023-07-08T13:20:15;0.35;;;0.33;;
26686;SDS011;14298;50.900;4.648;2023-07-08T13:22:46;1.42;;;1.02;;
26686;SDS011;14298;50.900;4.648;2023-07-08T13:25:13;7.78;;;1.40;;
26686;SDS011;14298;50.900;4.648;2023-07-08T13:27:42;1.98;;;0.90;;
26686;SDS011;14298;50.900;4.648;2023-07-08T13:30:20;1.37;;;1.15;;
26686;SDS011;14298;50.900;4.648;2023-07-08T13:32:39;0.67;;;0.60;;
26686;SDS011;14298;50.900;4.648;2023-07-08T13:35:20;7.03;;;1.23;;
26686;SDS011;14298;50.900;4.648;2023-07-08T13:37:37;1.23;;;1.10;;
26686;SDS011;14298;50.900;4.648;2023-07-08T13:40:05;3.60;;;1.30;;
26686;SDS011;14298;50.900;4.648;2023-07-08T13:42:35;1.60;;;1.10;;
26686;SDS011;14298;50.900;4.648;2023-07-08T13:45:03;3.10;;;0.62;;
26686;SDS011;14298;50.900;4.648;2023-07-08T13:47:31;1.83;;;1.47;;
26686;SDS011;14298;50.900;4.648;2023-07-08T13:50:07;1.77;;;0.98;;
26686;SDS011;14298;50.900;4.648;2023-07-08T13:52:35;1.65;;;1.20;;
26686;SDS011;14298;50.900;4.648;2023-07-08T13:55:09;3.33;;;1.10;;
26686;SDS011;14298;50.900;4.648;2023-07-08T13:57:35;1.62;;;1.35;;
26686;SDS011;14298;50.900;4.648;2023-07-08T14:00:03;2.67;;;0.85;;
26686;SDS011;14298;50.900;4.648;2023-07-08T14:02:31;0.90;;;0.90;;
26686;SDS011;14298;50.900;4.648;2023-07-08T14:05:00;2.27;;;1.07;;
26686;SDS011;14298;50.900;4.648;2023-07-08T14:07:31;14.60;;;1.32;;
26686;SDS011;14298;50.900;4.648;2023-07-08T14:10:00;0.88;;;0.88;;
26686;SDS011;14298;50.900;4.648;2023-07-08T14:12:28;1.10;;;0.98;;
26686;SDS011;14298;50.900;4.648;2023-07-08T14:14:56;0.90;;;0.85;;
26686;SDS011;14298;50.900;4.648;2023-07-08T14:17:25;2.55;;;1.35;;
26686;SDS011;14298;50.900;4.648;2023-07-08T14:22:41;2.42;;;1.07;;
26686;SDS011;14298;50.900;4.648;2023-07-08T14:25:10;2.10;;;1.27;;
26686;SDS011;14298;50.900;4.648;2023-07-08T14:27:38;4.45;;;1.20;;
26686;SDS011;14298;50.900;4.648;2023-07-08T14:30:08;4.37;;;1.25;;
26686;SDS011;14298;50.900;4.648;2023-07-08T14:32:36;5.35;;;1.07;;
26686;SDS011;14298;50.900;4.648;2023-07-08T14:35:17;1.95;;;1.35;;
26686;SDS011;14298;50.900;4.648;2023-07-08T14:37:45;1.45;;;1.00;;
26686;SDS011;14298;50.900;4.648;2023-07-08T14:40:25;2.33;;;1.20;;
26686;SDS011;14298;50.900;4.648;2023-07-08T14:42:43;2.83;;;1.45;;
26686;SDS011;14298;50.900;4.648;2023-07-08T14:45:11;2.72;;;1.70;;
26686;SDS011;14298;50.900;4.648;2023-07-08T14:47:39;1.12;;;1.12;;
26686;SDS011;14298;50.900;4.648;2023-07-08T14:50:14;1.25;;;0.90;;
26686;SDS011;14298;50.900;4.648;2023-07-08T14:52:42;1.30;;;1.20;;
26686;SDS011;14298;50.900;4.648;2023-07-08T14:55:10;1.17;;;1.07;;
26686;SDS011;14298;50.900;4.648;2023-07-08T14:57:45;1.75;;;0.95;;
26686;SDS011;14298;50.900;4.648;2023-07-08T15:00:15;1.57;;;1.12;;
26686;SDS011;14298;50.900;4.648;2023-07-08T15:02:43;3.72;;;1.52;;
26686;SDS011;14298;50.900;4.648;2023-07-08T15:05:19;2.33;;;1.12;;
26686;SDS011;14298;50.900;4.648;2023-07-08T15:07:48;6.42;;;1.75;;
26686;SDS011;14298;50.900;4.648;2023-07-08T15:10:18;1.65;;;1.50;;
26686;SDS011;14298;50.900;4.648;2023-07-08T15:12:47;6.35;;;1.42;;
26686;SDS011;14298;50.900;4.648;2023-07-08T15:15:17;3.80;;;1.10;;
26686;SDS011;14298;50.900;4.648;2023-07-08T15:17:45;3.47;;;1.32;;
26686;SDS011;14298;50.900;4.648;2023-07-08T15:20:13;1.22;;;1.00;;
26686;SDS011;14298;50.900;4.648;2023-07-08T15:22:42;1.85;;;0.98;;
26686;SDS011;14298;50.900;4.648;2023-07-08T15:25:12;3.77;;;1.17;;
26686;SDS011;14298;50.900;4.648;2023-07-08T15:27:47;2.62;;;1.32;;
26686;SDS011;14298;50.900;4.648;2023-07-08T15:30:20;1.50;;;1.30;;
26686;SDS011;14298;50.900;4.648;2023-07-08T15:32:48;0.93;;;0.85;;
26686;SDS011;14298;50.900;4.648;2023-07-08T15:35:17;2.27;;;0.98;;
26686;SDS011;14298;50.900;4.648;2023-07-08T15:37:46;6.33;;;1.70;;
26686;SDS011;14298;50.900;4.648;2023-07-08T15:40:15;3.62;;;1.25;;
26686;SDS011;14298;50.900;4.648;2023-07-08T15:42:48;2.15;;;1.55;;
26686;SDS011;14298;50.900;4.648;2023-07-08T15:45:21;1.40;;;1.30;;
26686;SDS011;14298;50.900;4.648;2023-07-08T15:47:45;1.87;;;1.67;;
26686;SDS011;14298;50.900;4.648;2023-07-08T15:50:14;5.55;;;2.17;;
26686;SDS011;14298;50.900;4.648;2023-07-08T15:52:42;8.58;;;1.85;;
26686;SDS011;14298;50.900;4.648;2023-07-08T15:55:11;1.62;;;1.52;;
26686;SDS011;14298;50.900;4.648;2023-07-08T15:57:52;1.05;;;1.05;;
26686;SDS011;14298;50.900;4.648;2023-07-08T16:00:16;2.62;;;1.20;;